sensor_id;sensor_type;location;lat;lon;timestamp;pressure;altitude;pressure_sealevel;temperature;humidity
76060;BME280;64759;52.220;5.170;2023-04-15T00:01:11;100847.91;;;9.72;56.89
76060;BME280;64759;52.220;5.170;2023-04-15T00:03:37;100844.34;;;9.73;56.89
76060;BME280;64759;52.220;5.170;2023-04-15T00:06:03;100840.81;;;9.74;56.51
76060;BME280;64759;52.220;5.170;2023-04-15T00:08:30;100852.78;;;9.75;56.43
76060;BME280;64759;52.220;5.170;2023-04-15T00:10:55;100842.84;;;9.71;56.77
76060;BME280;64759;52.220;5.170;2023-04-15T00:13:21;100845.59;;;9.69;56.88
76060;BME280;64759;52.220;5.170;2023-04-15T00:15:46;100843.94;;;9.68;56.94
76060;BME280;64759;52.220;5.170;2023-04-15T00:18:12;100849.09;;;9.68;56.88
76060;BME280;64759;52.220;5.170;2023-04-15T00:20:37;100844.06;;;9.67;56.92
76060;BME280;64759;52.220;5.170;2023-04-15T00:23:04;100841.22;;;9.60;57.68
76060;BME280;64759;52.220;5.170;2023-04-15T00:25:30;100843.09;;;9.58;57.60
76060;BME280;64759;52.220;5.170;2023-04-15T00:27:55;100845.69;;;9.58;57.16
76060;BME280;64759;52.220;5.170;2023-04-15T00:30:21;100844.19;;;9.56;57.52
76060;BME280;64759;52.220;5.170;2023-04-15T00:32:48;100844.75;;;9.50;57.61
76060;BME280;64759;52.220;5.170;2023-04-15T00:35:17;100844.31;;;9.45;57.72
76060;BME280;64759;52.220;5.170;2023-04-15T00:37:43;100839.72;;;9.48;58.10
76060;BME280;64759;52.220;5.170;2023-04-15T00:40:11;100844.75;;;9.50;58.12
76060;BME280;64759;52.220;5.170;2023-04-15T00:42:38;100846.22;;;9.43;58.20
76060;BME280;64759;52.220;5.170;2023-04-15T00:45:04;100840.91;;;9.44;58.48
76060;BME280;64759;52.220;5.170;2023-04-15T00:47:30;100842.00;;;9.42;58.68
76060;BME280;64759;52.220;5.170;2023-04-15T00:49:57;100845.41;;;9.42;58.60
76060;BME280;64759;52.220;5.170;2023-04-15T00:52:23;100849.31;;;9.37;58.67
76060;BME280;64759;52.220;5.170;2023-04-15T00:54:49;100851.22;;;9.35;58.60
76060;BME280;64759;52.220;5.170;2023-04-15T00:57:16;100848.78;;;9.33;58.75
76060;BME280;64759;52.220;5.170;2023-04-15T00:59:42;100848.22;;;9.30;58.91
76060;BME280;64759;52.220;5.170;2023-04-15T01:02:07;100844.28;;;9.26;59.47
76060;BME280;64759;52.220;5.170;2023-04-15T01:04:33;100845.91;;;9.27;59.37
76060;BME280;64759;52.220;5.170;2023-04-15T01:06:58;100856.53;;;9.24;59.40
76060;BME280;64759;52.220;5.170;2023-04-15T01:09:24;100846.88;;;9.26;58.95
76060;BME280;64759;52.220;5.170;2023-04-15T01:11:49;100848.78;;;9.24;59.22
76060;BME280;64759;52.220;5.170;2023-04-15T01:14:15;100834.88;;;9.25;59.29
76060;BME280;64759;52.220;5.170;2023-04-15T01:16:40;100842.22;;;9.19;59.78
76060;BME280;64759;52.220;5.170;2023-04-15T01:19:08;100852.44;;;9.21;59.53
76060;BME280;64759;52.220;5.170;2023-04-15T01:21:38;100846.69;;;9.17;59.58
76060;BME280;64759;52.220;5.170;2023-04-15T01:24:08;100845.72;;;9.09;60.16
76060;BME280;64759;52.220;5.170;2023-04-15T01:26:38;100855.34;;;9.07;59.98
76060;BME280;64759;52.220;5.170;2023-04-15T01:29:07;100852.22;;;9.03;60.48
76060;BME280;64759;52.220;5.170;2023-04-15T01:31:32;100860.63;;;8.96;61.06
76060;BME280;64759;52.220;5.170;2023-04-15T01:33:59;100856.78;;;8.90;61.17
76060;BME280;64759;52.220;5.170;2023-04-15T01:36:24;100851.09;;;8.87;61.79
76060;BME280;64759;52.220;5.170;2023-04-15T01:38:52;100857.03;;;8.87;61.91
76060;BME280;64759;52.220;5.170;2023-04-15T01:41:24;100857.56;;;8.81;62.47
76060;BME280;64759;52.220;5.170;2023-04-15T01:43:51;100857.38;;;8.73;63.12
76060;BME280;64759;52.220;5.170;2023-04-15T01:46:17;100863.63;;;8.71;63.38
76060;BME280;64759;52.220;5.170;2023-04-15T01:48:44;100867.41;;;8.67;63.35
76060;BME280;64759;52.220;5.170;2023-04-15T01:51:11;100859.09;;;8.63;63.56
76060;BME280;64759;52.220;5.170;2023-04-15T01:53:37;100866.03;;;8.63;63.81
76060;BME280;64759;52.220;5.170;2023-04-15T01:56:02;100862.22;;;8.57;63.79
76060;BME280;64759;52.220;5.170;2023-04-15T01:58:28;100860.81;;;8.53;63.72
76060;BME280;64759;52.220;5.170;2023-04-15T02:00:54;100862.25;;;8.46;64.04
76060;BME280;64759;52.220;5.170;2023-04-15T02:03:20;100862.50;;;8.43;64.20
76060;BME280;64759;52.220;5.170;2023-04-15T02:05:45;100861.97;;;8.39;64.37
76060;BME280;64759;52.220;5.170;2023-04-15T02:08:11;100861.97;;;8.39;64.67
76060;BME280;64759;52.220;5.170;2023-04-15T02:10:38;100860.44;;;8.37;64.71
76060;BME280;64759;52.220;5.170;2023-04-15T02:13:04;100859.63;;;8.36;64.66
76060;BME280;64759;52.220;5.170;2023-04-15T02:15:29;100860.81;;;8.32;64.99
76060;BME280;64759;52.220;5.170;2023-04-15T02:17:55;100858.09;;;8.34;65.11
76060;BME280;64759;52.220;5.170;2023-04-15T02:20:22;100865.84;;;8.34;65.54
76060;BME280;64759;52.220;5.170;2023-04-15T02:22:48;100872.53;;;8.36;65.69
76060;BME280;64759;52.220;5.170;2023-04-15T02:25:14;100867.75;;;8.32;65.81
76060;BME280;64759;52.220;5.170;2023-04-15T02:27:41;100867.75;;;8.32;65.92
76060;BME280;64759;52.220;5.170;2023-04-15T02:30:07;100871.16;;;8.32;66.08
76060;BME280;64759;52.220;5.170;2023-04-15T02:32:33;100877.63;;;8.27;66.62
76060;BME280;64759;52.220;5.170;2023-04-15T02:35:06;100877.00;;;8.23;66.74
76060;BME280;64759;52.220;5.170;2023-04-15T02:37:35;100889.22;;;8.21;67.17
76060;BME280;64759;52.220;5.170;2023-04-15T02:40:11;100886.88;;;8.18;67.47
76060;BME280;64759;52.220;5.170;2023-04-15T02:42:41;100885.00;;;8.20;67.26
76060;BME280;64759;52.220;5.170;2023-04-15T02:45:11;100887.25;;;8.14;67.75
76060;BME280;64759;52.220;5.170;2023-04-15T02:47:37;100891.63;;;8.13;68.01
76060;BME280;64759;52.220;5.170;2023-04-15T02:50:10;100899.22;;;8.15;68.20
76060;BME280;64759;52.220;5.170;2023-04-15T02:52:41;100895.94;;;8.13;68.18
76060;BME280;64759;52.220;5.170;2023-04-15T02:55:07;100895.13;;;8.12;68.35
76060;BME280;64759;52.220;5.170;2023-04-15T02:57:36;100905.31;;;8.14;68.20
76060;BME280;64759;52.220;5.170;2023-04-15T03:00:05;100905.44;;;8.12;68.45
76060;BME280;64759;52.220;5.170;2023-04-15T03:02:36;100909.22;;;8.08;68.63
76060;BME280;64759;52.220;5.170;2023-04-15T03:05:03;100915.75;;;8.12;68.48
76060;BME280;64759;52.220;5.170;2023-04-15T03:07:30;100912.25;;;8.13;68.61
76060;BME280;64759;52.220;5.170;2023-04-15T03:09:56;100916.81;;;8.10;69.11
76060;BME280;64759;52.220;5.170;2023-04-15T03:12:22;100911.91;;;8.07;69.38
76060;BME280;64759;52.220;5.170;2023-04-15T03:14:49;100910.53;;;8.03;69.53
76060;BME280;64759;52.220;5.170;2023-04-15T03:17:14;100914.84;;;8.02;69.43
76060;BME280;64759;52.220;5.170;2023-04-15T03:19:42;100910.06;;;7.98;69.88
76060;BME280;64759;52.220;5.170;2023-04-15T03:22:08;100910.81;;;7.88;70.22
76060;BME280;64759;52.220;5.170;2023-04-15T03:24:34;100916.19;;;7.85;70.71
76060;BME280;64759;52.220;5.170;2023-04-15T03:26:59;100921.34;;;7.85;70.43
76060;BME280;64759;52.220;5.170;2023-04-15T03:29:26;100919.59;;;7.86;70.62
76060;BME280;64759;52.220;5.170;2023-04-15T03:31:51;100926.06;;;7.80;71.19
76060;BME280;64759;52.220;5.170;2023-04-15T03:34:18;100921.97;;;7.78;71.07
76060;BME280;64759;52.220;5.170;2023-04-15T03:36:44;100943.41;;;7.78;71.26
76060;BME280;64759;52.220;5.170;2023-04-15T03:39:11;100939.41;;;7.74;71.43
76060;BME280;64759;52.220;5.170;2023-04-15T03:41:37;100933.47;;;7.74;71.32
76060;BME280;64759;52.220;5.170;2023-04-15T03:44:02;100935.22;;;7.73;71.75
76060;BME280;64759;52.220;5.170;2023-04-15T03:46:27;100937.09;;;7.71;71.95
76060;BME280;64759;52.220;5.170;2023-04-15T03:48:53;100944.69;;;7.73;71.62
76060;BME280;64759;52.220;5.170;2023-04-15T03:51:18;100945.06;;;7.68;72.06
76060;BME280;64759;52.220;5.170;2023-04-15T03:53:44;100943.63;;;7.64;72.09
76060;BME280;64759;52.220;5.170;2023-04-15T03:56:10;100947.75;;;7.56;72.68
76060;BME280;64759;52.220;5.170;2023-04-15T03:58:36;100946.81;;;7.57;72.63
76060;BME280;64759;52.220;5.170;2023-04-15T04:01:01;100956.41;;;7.55;72.75
76060;BME280;64759;52.220;5.170;2023-04-15T04:03:27;100961.47;;;7.45;73.47
76060;BME280;64759;52.220;5.170;2023-04-15T04:05:52;100952.13;;;7.44;73.10
76060;BME280;64759;52.220;5.170;2023-04-15T04:08:18;100957.97;;;7.46;73.32
76060;BME280;64759;52.220;5.170;2023-04-15T04:10:45;100962.28;;;7.46;73.37
76060;BME280;64759;52.220;5.170;2023-04-15T04:13:11;100959.13;;;7.42;73.52
76060;BME280;64759;52.220;5.170;2023-04-15T04:15:38;100959.25;;;7.41;73.79
76060;BME280;64759;52.220;5.170;2023-04-15T04:18:03;100961.94;;;7.39;73.57
76060;BME280;64759;52.220;5.170;2023-04-15T04:20:29;100966.06;;;7.42;73.93
76060;BME280;64759;52.220;5.170;2023-04-15T04:22:56;100974.47;;;7.33;74.12
76060;BME280;64759;52.220;5.170;2023-04-15T04:25:22;100975.41;;;7.32;74.32
76060;BME280;64759;52.220;5.170;2023-04-15T04:27:47;100974.59;;;7.31;74.38
76060;BME280;64759;52.220;5.170;2023-04-15T04:30:13;100980.78;;;7.29;74.98
76060;BME280;64759;52.220;5.170;2023-04-15T04:32:38;100987.00;;;7.26;74.82
76060;BME280;64759;52.220;5.170;2023-04-15T04:35:03;100985.25;;;7.27;75.11
76060;BME280;64759;52.220;5.170;2023-04-15T04:37:29;100994.38;;;7.19;75.48
76060;BME280;64759;52.220;5.170;2023-04-15T04:39:55;100989.31;;;7.18;75.61
76060;BME280;64759;52.220;5.170;2023-04-15T04:42:21;101001.28;;;7.19;75.53
76060;BME280;64759;52.220;5.170;2023-04-15T04:44:46;101003.72;;;7.20;75.60
76060;BME280;64759;52.220;5.170;2023-04-15T04:47:11;101007.94;;;7.21;75.29
76060;BME280;64759;52.220;5.170;2023-04-15T04:49:38;101014.97;;;7.19;75.28
76060;BME280;64759;52.220;5.170;2023-04-15T04:52:09;101025.28;;;7.19;75.90
76060;BME280;64759;52.220;5.170;2023-04-15T04:54:34;101021.19;;;7.17;75.63
76060;BME280;64759;52.220;5.170;2023-04-15T04:57:00;101026.31;;;7.17;75.83
76060;BME280;64759;52.220;5.170;2023-04-15T04:59:25;101025.16;;;7.10;75.91
76060;BME280;64759;52.220;5.170;2023-04-15T05:01:52;101035.53;;;7.08;76.63
76060;BME280;64759;52.220;5.170;2023-04-15T05:04:18;101043.38;;;7.07;76.49
76060;BME280;64759;52.220;5.170;2023-04-15T05:06:43;101039.16;;;7.06;76.68
76060;BME280;64759;52.220;5.170;2023-04-15T05:09:08;101046.66;;;7.09;76.44
76060;BME280;64759;52.220;5.170;2023-04-15T05:11:34;101047.50;;;7.09;75.86
76060;BME280;64759;52.220;5.170;2023-04-15T05:13:59;101055.09;;;7.11;76.14
76060;BME280;64759;52.220;5.170;2023-04-15T05:16:26;101055.31;;;7.08;76.18
76060;BME280;64759;52.220;5.170;2023-04-15T05:18:53;101058.13;;;7.05;76.91
76060;BME280;64759;52.220;5.170;2023-04-15T05:21:19;101059.97;;;7.03;76.51
76060;BME280;64759;52.220;5.170;2023-04-15T05:23:46;101059.97;;;7.03;76.64
76060;BME280;64759;52.220;5.170;2023-04-15T05:26:11;101068.66;;;7.02;76.55
76060;BME280;64759;52.220;5.170;2023-04-15T05:28:37;101069.56;;;7.01;77.07
76060;BME280;64759;52.220;5.170;2023-04-15T05:31:02;101072.28;;;6.99;77.18
76060;BME280;64759;52.220;5.170;2023-04-15T05:33:28;101081.31;;;7.05;77.04
76060;BME280;64759;52.220;5.170;2023-04-15T05:35:53;101077.78;;;7.06;76.72
76060;BME280;64759;52.220;5.170;2023-04-15T05:38:18;101082.09;;;7.05;76.81
76060;BME280;64759;52.220;5.170;2023-04-15T05:40:44;101087.16;;;7.07;77.01
76060;BME280;64759;52.220;5.170;2023-04-15T05:43:09;101095.25;;;7.13;76.64
76060;BME280;64759;52.220;5.170;2023-04-15T05:45:35;101095.94;;;7.15;76.77
76060;BME280;64759;52.220;5.170;2023-04-15T05:48:03;101104.50;;;7.16;76.34
76060;BME280;64759;52.220;5.170;2023-04-15T05:50:29;101105.13;;;7.19;76.81
76060;BME280;64759;52.220;5.170;2023-04-15T05:52:54;101111.06;;;7.20;76.75
76060;BME280;64759;52.220;5.170;2023-04-15T05:55:21;101113.19;;;7.26;76.72
76060;BME280;64759;52.220;5.170;2023-04-15T05:57:46;101122.34;;;7.30;76.82
76060;BME280;64759;52.220;5.170;2023-04-15T06:00:12;101132.34;;;7.46;76.40
76060;BME280;64759;52.220;5.170;2023-04-15T06:02:39;101131.44;;;7.58;75.93
76060;BME280;64759;52.220;5.170;2023-04-15T06:05:05;101138.47;;;7.67;75.47
76060;BME280;64759;52.220;5.170;2023-04-15T06:07:35;101143.41;;;7.70;75.63
76060;BME280;64759;52.220;5.170;2023-04-15T06:10:02;101142.94;;;7.76;75.48
76060;BME280;64759;52.220;5.170;2023-04-15T06:12:28;101150.06;;;7.72;75.48
76060;BME280;64759;52.220;5.170;2023-04-15T06:14:56;101154.78;;;7.78;75.83
76060;BME280;64759;52.220;5.170;2023-04-15T06:17:21;101154.31;;;7.84;75.26
76060;BME280;64759;52.220;5.170;2023-04-15T06:19:47;101159.13;;;7.78;75.69
76060;BME280;64759;52.220;5.170;2023-04-15T06:22:14;101164.19;;;7.90;75.39
76060;BME280;64759;52.220;5.170;2023-04-15T06:24:40;101172.72;;;8.02;75.22
76060;BME280;64759;52.220;5.170;2023-04-15T06:27:05;101169.69;;;8.08;74.92
76060;BME280;64759;52.220;5.170;2023-04-15T06:29:31;101180.38;;;8.15;74.98
76060;BME280;64759;52.220;5.170;2023-04-15T06:31:56;101180.06;;;8.30;74.52
76060;BME280;64759;52.220;5.170;2023-04-15T06:34:22;101185.91;;;8.54;73.76
76060;BME280;64759;52.220;5.170;2023-04-15T06:36:47;101185.03;;;8.76;72.87
76060;BME280;64759;52.220;5.170;2023-04-15T06:39:12;101182.94;;;9.02;72.47
76060;BME280;64759;52.220;5.170;2023-04-15T06:41:38;101189.47;;;9.17;71.32
76060;BME280;64759;52.220;5.170;2023-04-15T06:44:04;101195.25;;;9.41;71.14
76060;BME280;64759;52.220;5.170;2023-04-15T06:46:29;101196.72;;;9.75;70.45
76060;BME280;64759;52.220;5.170;2023-04-15T06:48:58;101208.75;;;10.07;69.14
76060;BME280;64759;52.220;5.170;2023-04-15T06:51:24;101209.34;;;10.40;68.35
76060;BME280;64759;52.220;5.170;2023-04-15T06:53:49;101205.47;;;10.65;66.87
76060;BME280;64759;52.220;5.170;2023-04-15T06:56:14;101212.84;;;10.70;65.96
76060;BME280;64759;52.220;5.170;2023-04-15T06:58:42;101213.53;;;10.81;66.03
76060;BME280;64759;52.220;5.170;2023-04-15T07:01:08;101221.91;;;11.04;65.71
76060;BME280;64759;52.220;5.170;2023-04-15T07:03:33;101224.81;;;11.30;64.87
76060;BME280;64759;52.220;5.170;2023-04-15T07:06:00;101230.50;;;11.52;63.36
76060;BME280;64759;52.220;5.170;2023-04-15T07:08:30;101230.56;;;11.71;62.35
76060;BME280;64759;52.220;5.170;2023-04-15T07:10:59;101242.41;;;11.64;62.77
76060;BME280;64759;52.220;5.170;2023-04-15T07:13:24;101236.69;;;11.70;62.06
76060;BME280;64759;52.220;5.170;2023-04-15T07:15:50;101244.28;;;12.01;61.39
76060;BME280;64759;52.220;5.170;2023-04-15T07:18:15;101244.78;;;12.14;60.14
76060;BME280;64759;52.220;5.170;2023-04-15T07:20:41;101254.56;;;12.39;59.18
76060;BME280;64759;52.220;5.170;2023-04-15T07:23:07;101257.75;;;12.14;59.72
76060;BME280;64759;52.220;5.170;2023-04-15T07:25:33;101255.22;;;12.41;59.23
76060;BME280;64759;52.220;5.170;2023-04-15T07:27:59;101257.09;;;12.48;59.17
76060;BME280;64759;52.220;5.170;2023-04-15T07:30:25;101264.19;;;12.83;58.28
76060;BME280;64759;52.220;5.170;2023-04-15T07:32:51;101269.22;;;12.94;57.73
76060;BME280;64759;52.220;5.170;2023-04-15T07:35:18;101279.84;;;13.01;57.06
76060;BME280;64759;52.220;5.170;2023-04-15T07:37:45;101270.03;;;13.40;55.57
76060;BME280;64759;52.220;5.170;2023-04-15T07:40:11;101273.81;;;13.28;55.02
76060;BME280;64759;52.220;5.170;2023-04-15T07:42:36;101280.56;;;13.21;55.24
76060;BME280;64759;52.220;5.170;2023-04-15T07:45:04;101275.38;;;13.56;54.47
76060;BME280;64759;52.220;5.170;2023-04-15T07:47:29;101278.88;;;13.64;54.20
76060;BME280;64759;52.220;5.170;2023-04-15T07:49:55;101294.34;;;14.09;52.84
76060;BME280;64759;52.220;5.170;2023-04-15T07:52:20;101298.16;;;13.97;53.34
76060;BME280;64759;52.220;5.170;2023-04-15T07:54:46;101300.69;;;14.32;52.87
76060;BME280;64759;52.220;5.170;2023-04-15T07:57:11;101306.09;;;14.65;52.02
76060;BME280;64759;52.220;5.170;2023-04-15T07:59:37;101308.44;;;14.76;51.57
76060;BME280;64759;52.220;5.170;2023-04-15T08:02:04;101309.03;;;14.62;51.44
76060;BME280;64759;52.220;5.170;2023-04-15T08:04:30;101321.66;;;14.82;51.01
76060;BME280;64759;52.220;5.170;2023-04-15T08:06:56;101329.88;;;14.62;51.09
76060;BME280;64759;52.220;5.170;2023-04-15T08:09:22;101325.03;;;14.67;51.43
76060;BME280;64759;52.220;5.170;2023-04-15T08:11:50;101328.16;;;14.78;51.59
76060;BME280;64759;52.220;5.170;2023-04-15T08:14:19;101333.59;;;14.93;51.01
76060;BME280;64759;52.220;5.170;2023-04-15T08:16:45;101332.56;;;15.20;49.75
76060;BME280;64759;52.220;5.170;2023-04-15T08:19:13;101335.69;;;15.23;49.91
76060;BME280;64759;52.220;5.170;2023-04-15T08:21:38;101337.00;;;15.35;49.99
76060;BME280;64759;52.220;5.170;2023-04-15T08:24:05;101331.22;;;16.06;49.12
76060;BME280;64759;52.220;5.170;2023-04-15T08:26:32;101335.78;;;16.28;47.22
76060;BME280;64759;52.220;5.170;2023-04-15T08:28:58;101343.78;;;16.02;48.04
76060;BME280;64759;52.220;5.170;2023-04-15T08:31:25;101344.06;;;16.48;47.01
76060;BME280;64759;52.220;5.170;2023-04-15T08:33:51;101335.41;;;16.47;46.91
76060;BME280;64759;52.220;5.170;2023-04-15T08:36:19;101342.69;;;16.84;46.57
76060;BME280;64759;52.220;5.170;2023-04-15T08:38:44;101349.09;;;16.73;45.68
76060;BME280;64759;52.220;5.170;2023-04-15T08:41:16;101357.00;;;16.41;46.10
76060;BME280;64759;52.220;5.170;2023-04-15T08:44:03;101359.59;;;16.57;46.04
76060;BME280;64759;52.220;5.170;2023-04-15T08:46:31;101364.94;;;16.80;45.61
76060;BME280;64759;52.220;5.170;2023-04-15T08:49:03;101371.31;;;16.85;45.36
76060;BME280;64759;52.220;5.170;2023-04-15T08:51:30;101365.16;;;17.09;45.01
76060;BME280;64759;52.220;5.170;2023-04-15T08:53:56;101373.66;;;17.42;43.87
76060;BME280;64759;52.220;5.170;2023-04-15T08:56:24;101381.06;;;17.30;43.31
76060;BME280;64759;52.220;5.170;2023-04-15T08:58:51;101376.47;;;17.02;43.21
76060;BME280;64759;52.220;5.170;2023-04-15T09:01:18;101381.06;;;16.99;43.48
76060;BME280;64759;52.220;5.170;2023-04-15T09:03:44;101392.50;;;16.98;43.78
76060;BME280;64759;52.220;5.170;2023-04-15T09:06:10;101389.25;;;17.27;42.99
76060;BME280;64759;52.220;5.170;2023-04-15T09:08:36;101392.69;;;17.28;41.66
76060;BME280;64759;52.220;5.170;2023-04-15T09:11:03;101407.28;;;17.22;42.04
76060;BME280;64759;52.220;5.170;2023-04-15T09:13:29;101390.50;;;17.00;42.86
76060;BME280;64759;52.220;5.170;2023-04-15T09:15:56;101401.06;;;17.62;42.18
76060;BME280;64759;52.220;5.170;2023-04-15T09:18:33;101403.38;;;17.57;41.76
76060;BME280;64759;52.220;5.170;2023-04-15T09:23:33;101407.41;;;16.82;42.27
76060;BME280;64759;52.220;5.170;2023-04-15T09:26:00;101407.63;;;16.32;43.82
76060;BME280;64759;52.220;5.170;2023-04-15T09:28:27;101415.63;;;16.30;43.79
76060;BME280;64759;52.220;5.170;2023-04-15T09:30:58;101424.59;;;16.44;43.57
76060;BME280;64759;52.220;5.170;2023-04-15T09:33:28;101422.97;;;16.59;43.36
76060;BME280;64759;52.220;5.170;2023-04-15T09:36:04;101436.22;;;16.33;43.53
76060;BME280;64759;52.220;5.170;2023-04-15T09:38:31;101429.34;;;16.41;43.30
76060;BME280;64759;52.220;5.170;2023-04-15T09:40:57;101430.47;;;16.78;42.93
76060;BME280;64759;52.220;5.170;2023-04-15T09:43:38;101435.22;;;16.83;42.92
76060;BME280;64759;52.220;5.170;2023-04-15T09:46:04;101439.81;;;16.73;43.80
76060;BME280;64759;52.220;5.170;2023-04-15T09:48:30;101443.22;;;16.49;44.36
76060;BME280;64759;52.220;5.170;2023-04-15T09:51:00;101449.22;;;17.06;43.82
76060;BME280;64759;52.220;5.170;2023-04-15T09:53:26;101444.72;;;17.31;43.20
76060;BME280;64759;52.220;5.170;2023-04-15T09:55:53;101450.91;;;16.83;44.23
76060;BME280;64759;52.220;5.170;2023-04-15T09:58:19;101461.19;;;16.92;43.45
76060;BME280;64759;52.220;5.170;2023-04-15T10:00:47;101451.25;;;16.80;43.96
76060;BME280;64759;52.220;5.170;2023-04-15T10:03:20;101456.75;;;16.93;43.87
76060;BME280;64759;52.220;5.170;2023-04-15T10:05:48;101455.97;;;16.92;43.81
76060;BME280;64759;52.220;5.170;2023-04-15T10:08:17;101458.25;;;16.87;44.37
76060;BME280;64759;52.220;5.170;2023-04-15T10:10:44;101460.56;;;16.82;44.25
76060;BME280;64759;52.220;5.170;2023-04-15T10:13:13;101460.72;;;16.65;44.89
76060;BME280;64759;52.220;5.170;2023-04-15T10:15:41;101470.00;;;16.91;44.90
76060;BME280;64759;52.220;5.170;2023-04-15T10:18:08;101470.44;;;17.19;44.98
76060;BME280;64759;52.220;5.170;2023-04-15T10:20:35;101474.97;;;17.25;45.16
76060;BME280;64759;52.220;5.170;2023-04-15T10:23:02;101473.09;;;17.50;44.91
76060;BME280;64759;52.220;5.170;2023-04-15T10:25:28;101481.47;;;17.37;44.92
76060;BME280;64759;52.220;5.170;2023-04-15T10:27:54;101480.16;;;17.88;44.52
76060;BME280;64759;52.220;5.170;2023-04-15T10:30:21;101488.91;;;18.03;44.04
76060;BME280;64759;52.220;5.170;2023-04-15T10:32:46;101484.34;;;17.97;43.82
76060;BME280;64759;52.220;5.170;2023-04-15T10:35:14;101490.47;;;17.82;44.69
76060;BME280;64759;52.220;5.170;2023-04-15T10:37:40;101493.47;;;18.01;44.20
76060;BME280;64759;52.220;5.170;2023-04-15T10:40:28;101503.63;;;17.74;44.39
76060;BME280;64759;52.220;5.170;2023-04-15T10:43:00;101500.03;;;17.20;46.22
76060;BME280;64759;52.220;5.170;2023-04-15T10:45:34;101502.66;;;17.12;45.09
76060;BME280;64759;52.220;5.170;2023-04-15T10:48:02;101502.69;;;17.04;45.21
76060;BME280;64759;52.220;5.170;2023-04-15T10:50:30;101501.38;;;16.99;45.51
76060;BME280;64759;52.220;5.170;2023-04-15T10:52:57;101509.81;;;17.34;45.55
76060;BME280;64759;52.220;5.170;2023-04-15T10:55:30;101508.22;;;17.25;45.21
76060;BME280;64759;52.220;5.170;2023-04-15T10:58:00;101517.78;;;16.53;46.63
76060;BME280;64759;52.220;5.170;2023-04-15T11:00:31;101514.44;;;16.51;47.16
76060;BME280;64759;52.220;5.170;2023-04-15T11:03:07;101536.00;;;16.37;47.33
76060;BME280;64759;52.220;5.170;2023-04-15T11:05:48;101529.13;;;16.28;48.28
76060;BME280;64759;52.220;5.170;2023-04-15T11:08:14;101533.28;;;16.55;47.69
76060;BME280;64759;52.220;5.170;2023-04-15T11:18:25;101519.31;;;17.27;47.27
76060;BME280;64759;52.220;5.170;2023-04-15T11:20:57;101532.72;;;17.24;46.50
76060;BME280;64759;52.220;5.170;2023-04-15T11:25:54;101527.94;;;17.35;46.47
76060;BME280;64759;52.220;5.170;2023-04-15T11:28:24;101527.63;;;17.30;45.70
76060;BME280;64759;52.220;5.170;2023-04-15T11:30:52;101547.47;;;17.09;45.53
76060;BME280;64759;52.220;5.170;2023-04-15T11:33:20;101543.31;;;17.38;44.38
76060;BME280;64759;52.220;5.170;2023-04-15T11:35:47;101553.13;;;17.52;43.87
76060;BME280;64759;52.220;5.170;2023-04-15T11:38:14;101552.78;;;17.55;44.56
76060;BME280;64759;52.220;5.170;2023-04-15T11:40:42;101551.78;;;17.64;44.37
76060;BME280;64759;52.220;5.170;2023-04-15T11:43:16;101560.03;;;17.29;45.15
76060;BME280;64759;52.220;5.170;2023-04-15T11:45:52;101564.50;;;16.96;45.22
76060;BME280;64759;52.220;5.170;2023-04-15T11:48:20;101566.47;;;16.94;45.79
76060;BME280;64759;52.220;5.170;2023-04-15T11:50:52;101570.88;;;16.86;45.36
76060;BME280;64759;52.220;5.170;2023-04-15T11:53:17;101575.94;;;16.87;45.43
76060;BME280;64759;52.220;5.170;2023-04-15T11:55:48;101566.28;;;16.96;45.36
76060;BME280;64759;52.220;5.170;2023-04-15T12:00:51;101589.84;;;16.80;45.14
76060;BME280;64759;52.220;5.170;2023-04-15T12:03:26;101583.78;;;16.55;45.83
76060;BME280;64759;52.220;5.170;2023-04-15T12:14:11;101597.53;;;16.89;45.86
76060;BME280;64759;52.220;5.170;2023-04-15T12:16:46;101604.25;;;17.00;45.63
76060;BME280;64759;52.220;5.170;2023-04-15T12:19:18;101592.28;;;17.06;46.08
76060;BME280;64759;52.220;5.170;2023-04-15T12:21:45;101586.41;;;17.04;45.21
76060;BME280;64759;52.220;5.170;2023-04-15T12:24:12;101597.84;;;17.19;45.81
76060;BME280;64759;52.220;5.170;2023-04-15T12:26:46;101604.53;;;17.21;46.26
76060;BME280;64759;52.220;5.170;2023-04-15T12:29:14;101603.25;;;17.01;45.03
76060;BME280;64759;52.220;5.170;2023-04-15T12:31:57;101608.66;;;16.75;46.15
76060;BME280;64759;52.220;5.170;2023-04-15T12:34:53;101606.78;;;16.52;46.78
76060;BME280;64759;52.220;5.170;2023-04-15T12:37:19;101609.66;;;16.32;46.85
76060;BME280;64759;52.220;5.170;2023-04-15T12:39:47;101617.34;;;16.26;47.96
76060;BME280;64759;52.220;5.170;2023-04-15T12:42:14;101619.28;;;16.32;48.26
76060;BME280;64759;52.220;5.170;2023-04-15T12:44:40;101627.19;;;15.98;48.30
76060;BME280;64759;52.220;5.170;2023-04-15T12:47:08;101622.22;;;16.21;48.18
76060;BME280;64759;52.220;5.170;2023-04-15T12:49:34;101625.50;;;16.31;48.17
76060;BME280;64759;52.220;5.170;2023-04-15T12:52:00;101627.34;;;16.47;48.62
76060;BME280;64759;52.220;5.170;2023-04-15T12:54:31;101632.78;;;16.53;48.48
76060;BME280;64759;52.220;5.170;2023-04-15T12:56:57;101636.44;;;16.26;48.54
76060;BME280;64759;52.220;5.170;2023-04-15T12:59:23;101637.34;;;16.09;48.17
76060;BME280;64759;52.220;5.170;2023-04-15T13:01:49;101638.25;;;15.92;48.95
76060;BME280;64759;52.220;5.170;2023-04-15T13:04:15;101653.19;;;16.08;48.72
76060;BME280;64759;52.220;5.170;2023-04-15T13:06:42;101650.69;;;15.73;49.77
76060;BME280;64759;52.220;5.170;2023-04-15T13:09:08;101644.69;;;15.72;49.59
76060;BME280;64759;52.220;5.170;2023-04-15T13:11:33;101664.19;;;15.60;49.83
76060;BME280;64759;52.220;5.170;2023-04-15T13:14:00;101666.56;;;15.53;50.38
76060;BME280;64759;52.220;5.170;2023-04-15T13:16:26;101660.13;;;15.65;49.84
76060;BME280;64759;52.220;5.170;2023-04-15T13:18:52;101662.63;;;15.75;49.33